sensor_id;sensor_type;location;lat;lon;timestamp;pressure;altitude;pressure_sealevel;temperature;humidity
18918;BME280;9591;52.742;13.650;2022-12-18T00:00:08;102836.69;;;-5.16;100.00
18918;BME280;9591;52.742;13.650;2022-12-18T00:02:58;102830.06;;;-5.39;100.00
18918;BME280;9591;52.742;13.650;2022-12-18T00:05:48;102834.22;;;-5.41;100.00
18918;BME280;9591;52.742;13.650;2022-12-18T00:08:35;102835.41;;;-5.49;100.00
18918;BME280;9591;52.742;13.650;2022-12-18T00:11:25;102831.81;;;-5.51;100.00
18918;BME280;9591;52.742;13.650;2022-12-18T00:14:13;102835.31;;;-5.50;100.00
18918;BME280;9591;52.742;13.650;2022-12-18T00:17:00;102840.19;;;-5.42;100.00
18918;BME280;9591;52.742;13.650;2022-12-18T00:19:46;102847.72;;;-5.58;100.00
18918;BME280;9591;52.742;13.650;2022-12-18T00:22:33;102848.09;;;-5.65;100.00
18918;BME280;9591;52.742;13.650;2022-12-18T00:25:20;102847.31;;;-5.51;100.00
18918;BME280;9591;52.742;13.650;2022-12-18T00:28:09;102826.63;;;-5.64;100.00
18918;BME280;9591;52.742;13.650;2022-12-18T00:31:00;102842.25;;;-5.49;100.00
18918;BME280;9591;52.742;13.650;2022-12-18T00:33:47;102786.28;;;-5.88;100.00
18918;BME280;9591;52.742;13.650;2022-12-18T00:36:40;102844.19;;;-5.72;100.00
18918;BME280;9591;52.742;13.650;2022-12-18T00:39:27;102840.16;;;-5.55;100.00
18918;BME280;9591;52.742;13.650;2022-12-18T00:42:14;102839.56;;;-5.51;100.00
18918;BME280;9591;52.742;13.650;2022-12-18T00:45:20;102838.19;;;-5.46;100.00
18918;BME280;9591;52.742;13.650;2022-12-18T00:48:07;102837.28;;;-5.46;100.00
18918;BME280;9591;52.742;13.650;2022-12-18T00:50:53;102839.56;;;-5.51;100.00
18918;BME280;9591;52.742;13.650;2022-12-18T00:53:40;102848.13;;;-5.52;100.00
18918;BME280;9591;52.742;13.650;2022-12-18T00:56:27;102838.56;;;-5.66;100.00
18918;BME280;9591;52.742;13.650;2022-12-18T00:59:14;102849.66;;;-5.67;100.00
18918;BME280;9591;52.742;13.650;2022-12-18T01:02:02;102841.94;;;-5.67;100.00
18918;BME280;9591;52.742;13.650;2022-12-18T01:04:49;102841.69;;;-5.83;100.00
18918;BME280;9591;52.742;13.650;2022-12-18T01:07:37;102844.72;;;-5.64;100.00
18918;BME280;9591;52.742;13.650;2022-12-18T01:10:24;102847.69;;;-5.71;100.00
18918;BME280;9591;52.742;13.650;2022-12-18T01:13:15;102853.47;;;-5.49;100.00
18918;BME280;9591;52.742;13.650;2022-12-18T01:16:02;102857.03;;;-5.60;100.00
18918;BME280;9591;52.742;13.650;2022-12-18T01:18:52;102867.19;;;-5.50;100.00
18918;BME280;9591;52.742;13.650;2022-12-18T01:21:40;102860.84;;;-5.42;100.00
18918;BME280;9591;52.742;13.650;2022-12-18T01:24:26;102847.28;;;-5.64;100.00
18918;BME280;9591;52.742;13.650;2022-12-18T01:27:13;102856.25;;;-5.59;100.00
18918;BME280;9591;52.742;13.650;2022-12-18T01:30:00;102857.22;;;-5.70;100.00
18918;BME280;9591;52.742;13.650;2022-12-18T01:32:47;102854.56;;;-5.58;100.00
18918;BME280;9591;52.742;13.650;2022-12-18T01:35:41;102867.66;;;-5.69;100.00
18918;BME280;9591;52.742;13.650;2022-12-18T01:38:28;102869.72;;;-5.76;100.00
18918;BME280;9591;52.742;13.650;2022-12-18T01:41:17;102871.88;;;-5.96;100.00
18918;BME280;9591;52.742;13.650;2022-12-18T01:47:26;102869.41;;;-5.81;100.00
18918;BME280;9591;52.742;13.650;2022-12-18T01:50:17;102873.88;;;-5.78;100.00
18918;BME280;9591;52.742;13.650;2022-12-18T01:53:10;102874.25;;;-5.85;100.00
18918;BME280;9591;52.742;13.650;2022-12-18T01:55:58;102870.97;;;-5.83;100.00
18918;BME280;9591;52.742;13.650;2022-12-18T01:58:54;102876.44;;;-5.91;100.00
18918;BME280;9591;52.742;13.650;2022-12-18T02:01:41;102875.44;;;-6.07;100.00
18918;BME280;9591;52.742;13.650;2022-12-18T02:04:29;102878.81;;;-5.95;100.00
18918;BME280;9591;52.742;13.650;2022-12-18T02:07:22;102873.63;;;-6.08;100.00
18918;BME280;9591;52.742;13.650;2022-12-18T02:10:15;102872.75;;;-6.08;100.00
18918;BME280;9591;52.742;13.650;2022-12-18T02:13:08;102877.13;;;-5.94;100.00
18918;BME280;9591;52.742;13.650;2022-12-18T02:16:02;102881.50;;;-5.93;100.00
18918;BME280;9591;52.742;13.650;2022-12-18T02:18:56;102870.63;;;-6.14;100.00
18918;BME280;9591;52.742;13.650;2022-12-18T02:21:49;102893.84;;;-6.14;100.00
18918;BME280;9591;52.742;13.650;2022-12-18T02:24:45;102882.84;;;-6.11;100.00
18918;BME280;9591;52.742;13.650;2022-12-18T02:27:37;102881.13;;;-5.73;100.00
18918;BME280;9591;52.742;13.650;2022-12-18T02:30:27;102884.19;;;-5.78;100.00
18918;BME280;9591;52.742;13.650;2022-12-18T02:33:18;102885.50;;;-5.72;100.00
18918;BME280;9591;52.742;13.650;2022-12-18T02:36:06;102887.84;;;-5.88;100.00
18918;BME280;9591;52.742;13.650;2022-12-18T02:38:55;102883.78;;;-5.84;100.00
18918;BME280;9591;52.742;13.650;2022-12-18T02:41:43;102883.25;;;-5.67;100.00
18918;BME280;9591;52.742;13.650;2022-12-18T02:44:33;102900.06;;;-5.85;100.00
18918;BME280;9591;52.742;13.650;2022-12-18T02:47:24;102907.06;;;-5.71;100.00
18918;BME280;9591;52.742;13.650;2022-12-18T02:50:19;102906.09;;;-5.60;100.00
18918;BME280;9591;52.742;13.650;2022-12-18T02:53:17;102908.63;;;-5.48;100.00
18918;BME280;9591;52.742;13.650;2022-12-18T02:56:11;102908.69;;;-5.60;100.00
18918;BME280;9591;52.742;13.650;2022-12-18T02:59:02;102902.94;;;-5.56;100.00
18918;BME280;9591;52.742;13.650;2022-12-18T03:02:17;102903.97;;;-5.79;100.00
18918;BME280;9591;52.742;13.650;2022-12-18T03:05:10;102904.97;;;-5.77;100.00
18918;BME280;9591;52.742;13.650;2022-12-18T03:08:00;102902.78;;;-5.71;100.00
18918;BME280;9591;52.742;13.650;2022-12-18T03:10:56;102911.06;;;-5.63;100.00
18918;BME280;9591;52.742;13.650;2022-12-18T03:13:48;102905.22;;;-5.85;100.00
18918;BME280;9591;52.742;13.650;2022-12-18T03:16:39;102906.19;;;-5.97;100.00
18918;BME280;9591;52.742;13.650;2022-12-18T03:19:32;102921.66;;;-6.10;100.00
18918;BME280;9591;52.742;13.650;2022-12-18T03:22:22;102914.38;;;-5.90;100.00
18918;BME280;9591;52.742;13.650;2022-12-18T03:25:13;102909.78;;;-5.95;100.00
18918;BME280;9591;52.742;13.650;2022-12-18T03:28:02;102903.19;;;-6.03;100.00
18918;BME280;9591;52.742;13.650;2022-12-18T03:30:54;102910.69;;;-5.94;100.00
18918;BME280;9591;52.742;13.650;2022-12-18T03:33:52;102908.22;;;-5.92;100.00
18918;BME280;9591;52.742;13.650;2022-12-18T03:36:48;102911.28;;;-5.85;100.00
18918;BME280;9591;52.742;13.650;2022-12-18T03:39:36;102917.13;;;-5.87;100.00
18918;BME280;9591;52.742;13.650;2022-12-18T03:42:27;102929.22;;;-6.00;100.00
18918;BME280;9591;52.742;13.650;2022-12-18T03:45:26;102913.41;;;-6.04;100.00
18918;BME280;9591;52.742;13.650;2022-12-18T03:48:21;102916.22;;;-6.01;100.00
18918;BME280;9591;52.742;13.650;2022-12-18T03:51:18;102908.16;;;-6.06;100.00
18918;BME280;9591;52.742;13.650;2022-12-18T03:54:12;102910.81;;;-6.17;100.00
18918;BME280;9591;52.742;13.650;2022-12-18T03:57:12;102925.75;;;-6.25;100.00
18918;BME280;9591;52.742;13.650;2022-12-18T04:00:04;102931.25;;;-6.32;100.00
18918;BME280;9591;52.742;13.650;2022-12-18T04:02:59;102927.53;;;-6.24;100.00
18918;BME280;9591;52.742;13.650;2022-12-18T04:05:55;102921.06;;;-6.42;100.00
18918;BME280;9591;52.742;13.650;2022-12-18T04:08:45;102920.06;;;-6.44;100.00
18918;BME280;9591;52.742;13.650;2022-12-18T04:11:39;102905.97;;;-6.61;100.00
18918;BME280;9591;52.742;13.650;2022-12-18T04:14:27;102916.34;;;-6.36;100.00
18918;BME280;9591;52.742;13.650;2022-12-18T04:17:15;102926.44;;;-6.39;100.00
18918;BME280;9591;52.742;13.650;2022-12-18T04:20:02;102920.78;;;-6.22;100.00
18918;BME280;9591;52.742;13.650;2022-12-18T04:22:49;102935.13;;;-6.14;100.00
18918;BME280;9591;52.742;13.650;2022-12-18T04:25:37;102925.06;;;-6.22;100.00
18918;BME280;9591;52.742;13.650;2022-12-18T04:28:30;102933.13;;;-6.18;100.00
18918;BME280;9591;52.742;13.650;2022-12-18T04:31:17;102937.16;;;-6.21;100.00
18918;BME280;9591;52.742;13.650;2022-12-18T04:34:04;102941.19;;;-6.13;100.00
18918;BME280;9591;52.742;13.650;2022-12-18T04:36:58;102932.34;;;-6.17;100.00
18918;BME280;9591;52.742;13.650;2022-12-18T04:39:45;102935.13;;;-6.14;100.00
18918;BME280;9591;52.742;13.650;2022-12-18T04:42:39;102931.25;;;-6.32;100.00
18918;BME280;9591;52.742;13.650;2022-12-18T04:45:28;102933.84;;;-6.32;100.00
18918;BME280;9591;52.742;13.650;2022-12-18T04:48:14;102919.78;;;-6.24;100.00
18918;BME280;9591;52.742;13.650;2022-12-18T04:51:02;102940.91;;;-6.41;100.00
18918;BME280;9591;52.742;13.650;2022-12-18T04:53:48;102937.56;;;-6.40;100.00
18918;BME280;9591;52.742;13.650;2022-12-18T04:56:35;102909.19;;;-6.40;100.00
18918;BME280;9591;52.742;13.650;2022-12-18T04:59:22;102936.75;;;-6.28;100.00
18918;BME280;9591;52.742;13.650;2022-12-18T05:02:10;102945.41;;;-6.50;100.00
18918;BME280;9591;52.742;13.650;2022-12-18T05:04:57;102944.06;;;-6.45;100.00
18918;BME280;9591;52.742;13.650;2022-12-18T05:07:44;102962.53;;;-6.28;100.00
18918;BME280;9591;52.742;13.650;2022-12-18T05:10:31;102964.75;;;-6.20;100.00
18918;BME280;9591;52.742;13.650;2022-12-18T05:13:22;102958.72;;;-6.33;100.00
18918;BME280;9591;52.742;13.650;2022-12-18T05:16:09;102948.13;;;-6.61;100.00
18918;BME280;9591;52.742;13.650;2022-12-18T05:18:58;102955.84;;;-6.61;100.00
18918;BME280;9591;52.742;13.650;2022-12-18T05:21:46;102968.84;;;-6.71;100.00
18918;BME280;9591;52.742;13.650;2022-12-18T05:24:33;102974.78;;;-6.72;100.00
18918;BME280;9591;52.742;13.650;2022-12-18T05:27:19;102978.94;;;-6.85;100.00
18918;BME280;9591;52.742;13.650;2022-12-18T05:30:08;102967.97;;;-6.71;100.00
18918;BME280;9591;52.742;13.650;2022-12-18T05:32:54;102983.19;;;-6.63;100.00
18918;BME280;9591;52.742;13.650;2022-12-18T05:35:43;102995.88;;;-6.77;100.00
18918;BME280;9591;52.742;13.650;2022-12-18T05:38:31;103000.91;;;-6.67;100.00
18918;BME280;9591;52.742;13.650;2022-12-18T05:41:17;102995.31;;;-6.62;100.00
18918;BME280;9591;52.742;13.650;2022-12-18T05:44:04;103001.03;;;-6.77;100.00
18918;BME280;9591;52.742;13.650;2022-12-18T05:46:51;102998.66;;;-6.74;100.00
18918;BME280;9591;52.742;13.650;2022-12-18T05:49:38;102970.97;;;-6.88;100.00
18918;BME280;9591;52.742;13.650;2022-12-18T05:52:26;103002.91;;;-6.86;100.00
18918;BME280;9591;52.742;13.650;2022-12-18T05:55:13;102996.31;;;-6.83;100.00
18918;BME280;9591;52.742;13.650;2022-12-18T05:58:00;102993.06;;;-6.80;100.00
18918;BME280;9591;52.742;13.650;2022-12-18T06:00:46;102993.16;;;-6.90;100.00
18918;BME280;9591;52.742;13.650;2022-12-18T06:03:33;102997.78;;;-6.98;100.00
18918;BME280;9591;52.742;13.650;2022-12-18T06:06:22;102995.63;;;-6.92;100.00
18918;BME280;9591;52.742;13.650;2022-12-18T06:09:10;103015.47;;;-6.56;100.00
18918;BME280;9591;52.742;13.650;2022-12-18T06:11:57;102999.78;;;-6.59;100.00
18918;BME280;9591;52.742;13.650;2022-12-18T06:14:44;103022.66;;;-6.64;100.00
18918;BME280;9591;52.742;13.650;2022-12-18T06:17:32;103020.41;;;-6.59;100.00
18918;BME280;9591;52.742;13.650;2022-12-18T06:20:18;103019.19;;;-6.64;100.00
18918;BME280;9591;52.742;13.650;2022-12-18T06:23:05;103014.69;;;-6.67;100.00
18918;BME280;9591;52.742;13.650;2022-12-18T06:25:54;103021.31;;;-6.58;100.00
18918;BME280;9591;52.742;13.650;2022-12-18T06:28:41;102963.50;;;-7.09;100.00
18918;BME280;9591;52.742;13.650;2022-12-18T06:31:28;103027.38;;;-6.58;100.00
18918;BME280;9591;52.742;13.650;2022-12-18T06:34:14;103038.34;;;-6.72;100.00
18918;BME280;9591;52.742;13.650;2022-12-18T06:37:01;103039.69;;;-6.77;100.00
18918;BME280;9591;52.742;13.650;2022-12-18T06:39:48;103057.84;;;-6.76;100.00
18918;BME280;9591;52.742;13.650;2022-12-18T06:42:36;103062.31;;;-6.73;100.00
18918;BME280;9591;52.742;13.650;2022-12-18T06:45:23;103064.09;;;-6.84;100.00
18918;BME280;9591;52.742;13.650;2022-12-18T06:48:10;103073.22;;;-6.66;100.00
18918;BME280;9591;52.742;13.650;2022-12-18T06:50:57;103073.84;;;-6.91;100.00
18918;BME280;9591;52.742;13.650;2022-12-18T06:53:44;103075.09;;;-6.75;100.00
18918;BME280;9591;52.742;13.650;2022-12-18T06:56:31;103032.06;;;-6.99;100.00
18918;BME280;9591;52.742;13.650;2022-12-18T06:59:19;103069.84;;;-6.76;100.00
18918;BME280;9591;52.742;13.650;2022-12-18T07:02:06;103080.03;;;-6.78;100.00
18918;BME280;9591;52.742;13.650;2022-12-18T07:04:52;103070.50;;;-6.79;100.00
18918;BME280;9591;52.742;13.650;2022-12-18T07:07:39;103076.47;;;-6.68;100.00
18918;BME280;9591;52.742;13.650;2022-12-18T07:10:26;103075.00;;;-6.65;100.00
18918;BME280;9591;52.742;13.650;2022-12-18T07:13:13;103074.88;;;-6.66;100.00
18918;BME280;9591;52.742;13.650;2022-12-18T07:16:06;103060.09;;;-6.69;100.00
18918;BME280;9591;52.742;13.650;2022-12-18T07:19:03;103062.22;;;-6.75;100.00
18918;BME280;9591;52.742;13.650;2022-12-18T07:21:49;103067.50;;;-6.62;100.00
18918;BME280;9591;52.742;13.650;2022-12-18T07:24:36;103072.19;;;-6.68;100.00
18918;BME280;9591;52.742;13.650;2022-12-18T07:27:23;103077.34;;;-6.68;100.00
18918;BME280;9591;52.742;13.650;2022-12-18T07:30:11;103077.91;;;-6.72;100.00
18918;BME280;9591;52.742;13.650;2022-12-18T07:32:59;103070.03;;;-6.85;100.00
18918;BME280;9591;52.742;13.650;2022-12-18T07:35:45;103089.66;;;-6.75;100.00
18918;BME280;9591;52.742;13.650;2022-12-18T07:38:34;103084.63;;;-6.74;100.00
18918;BME280;9591;52.742;13.650;2022-12-18T07:41:21;103085.72;;;-6.82;100.00
18918;BME280;9591;52.742;13.650;2022-12-18T07:44:09;103086.56;;;-6.59;100.00
18918;BME280;9591;52.742;13.650;2022-12-18T07:46:56;103096.19;;;-6.57;100.00
18918;BME280;9591;52.742;13.650;2022-12-18T07:49:44;103095.31;;;-6.57;100.00
18918;BME280;9591;52.742;13.650;2022-12-18T07:52:31;103093.41;;;-6.48;100.00
18918;BME280;9591;52.742;13.650;2022-12-18T07:55:18;103090.38;;;-6.54;100.00
18918;BME280;9591;52.742;13.650;2022-12-18T07:58:05;103104.28;;;-6.52;100.00
18918;BME280;9591;52.742;13.650;2022-12-18T08:00:52;103097.88;;;-6.57;100.00
18918;BME280;9591;52.742;13.650;2022-12-18T08:03:40;103088.22;;;-6.72;100.00
18918;BME280;9591;52.742;13.650;2022-12-18T08:06:28;103087.13;;;-6.64;100.00
18918;BME280;9591;52.742;13.650;2022-12-18T08:09:15;103090.47;;;-6.65;100.00
18918;BME280;9591;52.742;13.650;2022-12-18T08:12:02;103082.19;;;-6.49;100.00
18918;BME280;9591;52.742;13.650;2022-12-18T08:14:49;103092.97;;;-6.54;100.00
18918;BME280;9591;52.742;13.650;2022-12-18T08:17:36;103094.41;;;-6.58;100.00
18918;BME280;9591;52.742;13.650;2022-12-18T08:20:23;103093.28;;;-6.62;100.00
18918;BME280;9591;52.742;13.650;2022-12-18T08:23:11;103094.41;;;-6.46;100.00
18918;BME280;9591;52.742;13.650;2022-12-18T08:25:58;103096.66;;;-6.39;100.00
18918;BME280;9591;52.742;13.650;2022-12-18T08:28:44;103088.16;;;-6.38;100.00
18918;BME280;9591;52.742;13.650;2022-12-18T08:31:32;103097.00;;;-6.46;100.00
18918;BME280;9591;52.742;13.650;2022-12-18T08:34:19;103097.47;;;-6.40;100.00
18918;BME280;9591;52.742;13.650;2022-12-18T08:37:06;103105.31;;;-6.27;100.00
18918;BME280;9591;52.742;13.650;2022-12-18T08:39:54;103098.59;;;-6.25;100.00
18918;BME280;9591;52.742;13.650;2022-12-18T08:42:41;103104.28;;;-6.41;100.00
18918;BME280;9591;52.742;13.650;2022-12-18T08:45:45;103107.44;;;-6.45;100.00
18918;BME280;9591;52.742;13.650;2022-12-18T08:48:32;103114.84;;;-6.38;100.00
18918;BME280;9591;52.742;13.650;2022-12-18T08:51:20;103112.50;;;-6.23;100.00
18918;BME280;9591;52.742;13.650;2022-12-18T08:54:07;103110.34;;;-6.29;100.00
18918;BME280;9591;52.742;13.650;2022-12-18T08:56:55;103116.19;;;-6.19;100.00
18918;BME280;9591;52.742;13.650;2022-12-18T08:59:42;103112.03;;;-6.17;100.00
18918;BME280;9591;52.742;13.650;2022-12-18T09:02:28;103122.25;;;-6.07;100.00
18918;BME280;9591;52.742;13.650;2022-12-18T09:05:15;103122.00;;;-5.99;100.00
18918;BME280;9591;52.742;13.650;2022-12-18T09:08:02;103126.94;;;-5.90;100.00
18918;BME280;9591;52.742;13.650;2022-12-18T09:10:50;103123.06;;;-5.72;100.00
18918;BME280;9591;52.742;13.650;2022-12-18T09:13:38;103120.34;;;-5.73;100.00
18918;BME280;9591;52.742;13.650;2022-12-18T09:16:26;103133.16;;;-5.86;100.00
18918;BME280;9591;52.742;13.650;2022-12-18T09:19:17;103131.03;;;-5.80;100.00
18918;BME280;9591;52.742;13.650;2022-12-18T09:22:04;103141.91;;;-5.84;100.00
18918;BME280;9591;52.742;13.650;2022-12-18T09:24:51;103145.41;;;-5.84;100.00
18918;BME280;9591;52.742;13.650;2022-12-18T09:27:38;103150.78;;;-5.81;100.00
18918;BME280;9591;52.742;13.650;2022-12-18T09:30:26;103152.34;;;-5.83;100.00
18918;BME280;9591;52.742;13.650;2022-12-18T09:33:13;103147.75;;;-5.75;100.00
18918;BME280;9591;52.742;13.650;2022-12-18T09:36:01;103151.44;;;-5.72;100.00
18918;BME280;9591;52.742;13.650;2022-12-18T09:38:48;103140.44;;;-5.69;100.00
18918;BME280;9591;52.742;13.650;2022-12-18T09:41:41;103130.56;;;-5.75;100.00
18918;BME280;9591;52.742;13.650;2022-12-18T09:44:31;103135.50;;;-5.66;100.00
18918;BME280;9591;52.742;13.650;2022-12-18T09:47:29;103135.34;;;-5.44;100.00
18918;BME280;9591;52.742;13.650;2022-12-18T09:50:26;103127.22;;;-5.37;100.00
18918;BME280;9591;52.742;13.650;2022-12-18T09:53:18;103120.41;;;-5.48;100.00
18918;BME280;9591;52.742;13.650;2022-12-18T09:56:10;103114.69;;;-5.44;100.00
18918;BME280;9591;52.742;13.650;2022-12-18T09:59:02;103114.91;;;-5.41;100.00
18918;BME280;9591;52.742;13.650;2022-12-18T10:01:50;103108.72;;;-5.43;100.00
18918;BME280;9591;52.742;13.650;2022-12-18T10:04:38;103105.66;;;-5.38;100.00
18918;BME280;9591;52.742;13.650;2022-12-18T10:07:31;103106.16;;;-5.55;100.00
18918;BME280;9591;52.742;13.650;2022-12-18T10:10:29;103071.72;;;-5.67;100.00
18918;BME280;9591;52.742;13.650;2022-12-18T10:13:22;103089.28;;;-5.38;100.00
18918;BME280;9591;52.742;13.650;2022-12-18T10:16:14;103096.06;;;-5.52;100.00
18918;BME280;9591;52.742;13.650;2022-12-18T10:19:24;103090.84;;;-5.40;100.00
18918;BME280;9591;52.742;13.650;2022-12-18T10:22:24;103086.47;;;-5.41;100.00
18918;BME280;9591;52.742;13.650;2022-12-18T10:25:19;103083.44;;;-5.36;100.00
18918;BME280;9591;52.742;13.650;2022-12-18T10:28:12;103084.16;;;-5.25;100.00
18918;BME280;9591;52.742;13.650;2022-12-18T10:30:59;103073.97;;;-5.10;100.00
18918;BME280;9591;52.742;13.650;2022-12-18T10:33:46;103077.75;;;-5.05;100.00
18918;BME280;9591;52.742;13.650;2022-12-18T10:36:32;103070.63;;;-4.96;100.00
18918;BME280;9591;52.742;13.650;2022-12-18T10:39:24;103073.94;;;-4.85;100.00
18918;BME280;9591;52.742;13.650;2022-12-18T10:42:16;103057.63;;;-4.84;100.00
18918;BME280;9591;52.742;13.650;2022-12-18T10:45:09;103060.81;;;-4.75;100.00
18918;BME280;9591;52.742;13.650;2022-12-18T10:47:56;103063.13;;;-4.67;100.00
18918;BME280;9591;52.742;13.650;2022-12-18T10:50:46;103058.56;;;-4.71;100.00
18918;BME280;9591;52.742;13.650;2022-12-18T10:53:56;103055.13;;;-4.83;100.00
18918;BME280;9591;52.742;13.650;2022-12-18T10:56:45;103049.19;;;-4.82;100.00
18918;BME280;9591;52.742;13.650;2022-12-18T10:59:50;103047.69;;;-4.78;100.00
18918;BME280;9591;52.742;13.650;2022-12-18T11:02:38;103041.53;;;-4.80;100.00
18918;BME280;9591;52.742;13.650;2022-12-18T11:05:29;102875.97;;;-5.73;100.00
18918;BME280;9591;52.742;13.650;2022-12-18T11:08:20;102978.94;;;-5.01;100.00
18918;BME280;9591;52.742;13.650;2022-12-18T11:11:17;103038.19;;;-4.53;100.00
18918;BME280;9591;52.742;13.650;2022-12-18T11:14:17;103035.09;;;-4.60;100.00
18918;BME280;9591;52.742;13.650;2022-12-18T11:17:05;103032.81;;;-4.56;100.00
18918;BME280;9591;52.742;13.650;2022-12-18T11:20:21;103039.66;;;-4.56;100.00
18918;BME280;9591;52.742;13.650;2022-12-18T11:23:12;103024.75;;;-4.34;100.00
18918;BME280;9591;52.742;13.650;2022-12-18T11:26:01;103023.56;;;-4.39;100.00
18918;BME280;9591;52.742;13.650;2022-12-18T11:28:50;103017.44;;;-4.26;100.00
18918;BME280;9591;52.742;13.650;2022-12-18T11:31:39;103020.31;;;-4.22;100.00
18918;BME280;9591;52.742;13.650;2022-12-18T11:34:28;103027.38;;;-4.19;100.00
18918;BME280;9591;52.742;13.650;2022-12-18T11:37:17;103030.88;;;-4.19;100.00
18918;BME280;9591;52.742;13.650;2022-12-18T11:40:10;103031.06;;;-4.16;100.00
18918;BME280;9591;52.742;13.650;2022-12-18T11:43:04;103037.13;;;-4.15;100.00
18918;BME280;9591;52.742;13.650;2022-12-18T11:45:55;103047.78;;;-4.11;100.00
18918;BME280;9591;52.742;13.650;2022-12-18T11:48:48;103040.72;;;-4.00;100.00
18918;BME280;9591;52.742;13.650;2022-12-18T11:51:43;103047.00;;;-4.10;100.00
18918;BME280;9591;52.742;13.650;2022-12-18T11:54:31;103051.09;;;-4.26;100.00
18918;BME280;9591;52.742;13.650;2022-12-18T11:57:28;103060.03;;;-4.08;100.00
18918;BME280;9591;52.742;13.650;2022-12-18T12:00:20;103051.06;;;-4.13;100.00
18918;BME280;9591;52.742;13.650;2022-12-18T12:03:18;103059.34;;;-4.06;100.00
18918;BME280;9591;52.742;13.650;2022-12-18T12:06:17;103068.00;;;-4.05;100.00
18918;BME280;9591;52.742;13.650;2022-12-18T12:09:14;103066.41;;;-4.16;100.00
18918;BME280;9591;52.742;13.650;2022-12-18T12:12:20;103062.81;;;-4.18;100.00
18918;BME280;9591;52.742;13.650;2022-12-18T12:15:17;103059.34;;;-4.06;100.00
18918;BME280;9591;52.742;13.650;2022-12-18T12:18:22;103054.44;;;-4.01;100.00
18918;BME280;9591;52.742;13.650;2022-12-18T12:21:23;103059.50;;;-3.89;100.00
18918;BME280;9591;52.742;13.650;2022-12-18T12:24:42;103066.28;;;-3.78;100.00
18918;BME280;9591;52.742;13.650;2022-12-18T12:28:13;103077.47;;;-4.06;100.00
18918;BME280;9591;52.742;13.650;2022-12-18T12:31:44;103079.34;;;-4.03;100.00
18918;BME280;9591;52.742;13.650;2022-12-18T12:35:15;103072.97;;;-3.95;100.00
18918;BME280;9591;52.742;13.650;2022-12-18T12:38:33;103075.88;;;-4.04;100.00
18918;BME280;9591;52.742;13.650;2022-12-18T12:41:41;103079.25;;;-4.05;100.00
18918;BME280;9591;52.742;13.650;2022-12-18T12:44:55;103083.22;;;-3.97;100.00
18918;BME280;9591;52.742;13.650;2022-12-18T12:48:00;103084.19;;;-3.81;100.00
18918;BME280;9591;52.742;13.650;2022-12-18T12:50:58;103084.13;;;-3.96;100.00
18918;BME280;9591;52.742;13.650;2022-12-18T12:54:12;103056.34;;;-3.99;100.00
18918;BME280;9591;52.742;13.650;2022-12-18T12:57:19;103073.25;;;-3.90;100.00
18918;BME280;9591;52.742;13.650;2022-12-18T13:00:28;103069.47;;;-3.82;100.00
18918;BME280;9591;52.742;13.650;2022-12-18T13:03:41;103060.03;;;-3.95;100.00
18918;BME280;9591;52.742;13.650;2022-12-18T13:06:48;103051.44;;;-3.94;100.00
18918;BME280;9591;52.742;13.650;2022-12-18T13:13:48;103036.22;;;-3.89;100.00
18918;BME280;9591;52.742;13.650;2022-12-18T13:16:49;103032.25;;;-3.98;100.00
18918;BME280;9591;52.742;13.650;2022-12-18T13:19:49;103016.44;;;-4.15;100.00
18918;BME280;9591;52.742;13.650;2022-12-18T13:22:46;103025.88;;;-4.03;100.00
18918;BME280;9591;52.742;13.650;2022-12-18T13:25:41;103026.41;;;-4.21;100.00
18918;BME280;9591;52.742;13.650;2022-12-18T13:28:57;103036.84;;;-4.20;100.00
18918;BME280;9591;52.742;13.650;2022-12-18T13:35:38;103055.75;;;-4.08;100.00
18918;BME280;9591;52.742;13.650;2022-12-18T13:38:37;103050.97;;;-4.15;100.00
18918;BME280;9591;52.742;13.650;2022-12-18T13:41:33;103037.94;;;-4.16;100.00
18918;BME280;9591;52.742;13.650;2022-12-18T13:44:33;102891.25;;;-4.98;100.00
18918;BME280;9591;52.742;13.650;2022-12-18T13:47:33;103041.63;;;-4.13;100.00
18918;BME280;9591;52.742;13.650;2022-12-18T13:50:26;103035.03;;;-4.08;100.00
18918;BME280;9591;52.742;13.650;2022-12-18T13:53:26;103032.03;;;-4.01;100.00
18918;BME280;9591;52.742;13.650;2022-12-18T13:56:26;103003.19;;;-4.07;100.00
18918;BME280;9591;52.742;13.650;2022-12-18T13:59:20;103022.69;;;-4.12;100.00
18918;BME280;9591;52.742;13.650;2022-12-18T14:02:25;102949.91;;;-4.44;100.00
18918;BME280;9591;52.742;13.650;2022-12-18T14:05:34;103003.47;;;-4.02;100.00
18918;BME280;9591;52.742;13.650;2022-12-18T14:08:33;102986.88;;;-4.19;100.00
18918;BME280;9591;52.742;13.650;2022-12-18T14:11:27;102981.56;;;-4.35;100.00
18918;BME280;9591;52.742;13.650;2022-12-18T14:14:21;102996.19;;;-4.36;100.00
18918;BME280;9591;52.742;13.650;2022-12-18T14:17:19;103005.81;;;-4.33;100.00
18918;BME280;9591;52.742;13.650;2022-12-18T14:20:20;103007.69;;;-4.31;100.00
18918;BME280;9591;52.742;13.650;2022-12-18T14:23:30;103002.94;;;-4.38;100.00
18918;BME280;9591;52.742;13.650;2022-12-18T14:26:30;102996.28;;;-4.47;100.00
18918;BME280;9591;52.742;13.650;2022-12-18T14:29:30;102983.56;;;-4.44;100.00
18918;BME280;9591;52.742;13.650;2022-12-18T14:32:23;102968.13;;;-4.43;100.00
18918;BME280;9591;52.742;13.650;2022-12-18T14:35:32;102981.94;;;-4.42;100.00
18918;BME280;9591;52.742;13.650;2022-12-18T14:38:30;102969.53;;;-4.48;100.00
18918;BME280;9591;52.742;13.650;2022-12-18T14:41:27;102964.03;;;-4.39;100.00
18918;BME280;9591;52.742;13.650;2022-12-18T14:44:18;102965.13;;;-4.36;100.00
18918;BME280;9591;52.742;13.650;2022-12-18T14:47:37;102955.47;;;-4.38;100.00
18918;BME280;9591;52.742;13.650;2022-12-18T14:50:38;102953.19;;;-4.47;100.00
18918;BME280;9591;52.742;13.650;2022-12-18T14:53:33;102941.34;;;-4.43;100.00
18918;BME280;9591;52.742;13.650;2022-12-18T14:56:24;102939.75;;;-4.41;100.00
18918;BME280;9591;52.742;13.650;2022-12-18T14:59:14;102932.47;;;-4.34;100.00